Time;durP1;ratioP1;P1;durP2;ratioP2;P2;SDS_P1;SDS_P2;PMS_P1;PMS_P2;Temp;Humidity;BMP_temperature;BMP_pressure;BME280_temperature;BME280_humidity;BME280_pressure;Samples;Min_cycle;Max_cycle;Signal;HPM_P1;HPM_P2
2021/11/17 02:25:52;;;;;;;1999.90;999.90;;;;;;;5.17;86.93;101276.84;1733420;81;20995;-71
2021/11/17 02:28:29;;;;;;;1999.90;999.90;;;;;;;5.16;86.96;101279.82;1734278;81;21050;-71
2021/11/17 02:31:22;;;;;;;1999.90;999.90;;;;;;;5.17;86.96;101276.84;1733068;81;21047;-71
2021/11/17 02:34:09;;;;;;;1999.90;999.90;;;;;;;5.17;86.93;101278.13;1717277;81;21302;-71
2021/11/17 02:36:41;;;;;;;1999.90;999.90;;;;;;;5.17;86.95;101275.55;1708427;81;21082;-71
2021/11/17 02:39:34;;;;;;;1999.90;999.90;;;;;;;5.16;86.90;101268.28;1730501;82;21031;-71
2021/11/17 02:42:08;;;;;;;1999.90;999.90;;;;;;;5.15;86.83;101265.28;1703240;82;21103;-71
2021/11/17 02:44:57;;;;;;;1999.90;999.90;;;;;;;5.15;86.87;101263.13;1721997;82;21078;-71
2021/11/17 02:47:50;;;;;;;1999.90;999.90;;;;;;;5.12;86.82;101260.52;1726576;82;20912;-71
2021/11/17 02:50:39;;;;;;;1999.90;999.90;;;;;;;5.10;86.86;101257.92;1707624;82;20907;-71
2021/11/17 02:53:45;;;;;;;1999.90;999.90;;;;;;;5.09;86.89;101252.36;1722652;82;20876;-71
2021/11/17 02:56:22;;;;;;;1999.90;999.90;;;;;;;5.09;86.87;101254.05;1727191;82;20924;-71
2021/11/17 02:59:27;;;;;;;1999.90;999.90;;;;;;;5.07;86.89;101246.34;1729521;82;20904;-71
2021/11/17 03:01:59;;;;;;;1999.90;999.90;;;;;;;5.06;86.90;101248.46;1707834;82;20896;-71
2021/11/17 03:04:43;;;;;;;1999.90;999.90;;;;;;;5.08;86.93;101247.20;1725240;82;20932;-71
2021/11/17 03:07:21;;;;;;;1999.90;999.90;;;;;;;5.07;86.92;101248.04;1708661;82;20904;-71
2021/11/17 03:10:21;;;;;;;1999.90;999.90;;;;;;;5.07;86.91;101253.17;1711607;82;20944;-71
2021/11/17 03:13:29;;;;;;;1999.90;999.90;;;;;;;5.05;86.90;101255.70;1730192;82;20931;-71
2021/11/17 03:16:18;;;;;;;1999.90;999.90;;;;;;;5.04;86.92;101245.43;1713819;82;20936;-71
2021/11/17 03:19:00;;;;;;;1999.90;999.90;;;;;;;5.05;86.96;101249.30;1730196;82;20866;-71
2021/11/17 03:22:03;;;;;;;1999.90;999.90;;;;;;;5.04;86.97;101239.88;1730223;82;20869;-71
2021/11/17 03:24:47;;;;;;;1999.90;999.90;;;;;;;5.03;86.95;101239.44;1658574;80;5000063;-71
2021/11/17 03:27:59;;;;;;;1999.90;999.90;;;;;;;5.03;86.98;101231.75;1742047;81;20942;-71
2021/11/17 03:30:48;;;;;;;1999.90;999.90;;;;;;;5.03;86.94;101222.78;1728778;82;21029;-71
2021/11/17 03:33:51;;;;;;;1999.90;999.90;;;;;;;5.00;86.90;101222.73;1722557;82;21065;-71
2021/11/17 03:36:31;;;;;;;1999.90;999.90;;;;;;;4.97;86.93;101226.52;1702665;82;21093;-71
2021/11/17 03:39:27;;;;;;;1999.90;999.90;;;;;;;4.97;86.99;101226.10;1707161;82;21565;-71
2021/11/17 03:42:08;;;;;;;1999.90;999.90;;;;;;;4.93;86.92;101226.89;1729810;82;21411;-71
2021/11/17 03:45:01;;;;;;;1999.90;999.90;;;;;;;4.92;86.96;101225.58;1740182;81;21337;-71
2021/11/17 03:47:39;;;;;;;1999.90;999.90;;;;;;;4.90;86.93;101224.70;1725118;82;21381;-71
2021/11/17 03:50:45;;;;;;;1999.90;999.90;;;;;;;4.89;86.93;101231.94;1745068;81;20945;-71
2021/11/17 03:53:31;;;;;;;1999.90;999.90;;;;;;;4.88;86.95;101231.07;1727525;82;21116;-71
2021/11/17 03:56:18;;;;;;;1999.90;999.90;;;;;;;4.88;86.97;101227.65;1716159;82;21032;-71
2021/11/17 03:59:18;;;;;;;1999.90;999.90;;;;;;;4.90;87.02;101224.70;1715771;82;21124;-71
2021/11/17 04:02:18;;;;;;;1999.90;999.90;;;;;;;4.91;87.04;101222.58;1712482;81;21041;-71
2021/11/17 04:04:59;;;;;;;1999.90;999.90;;;;;;;4.90;86.98;101219.56;1740658;82;21068;-71
2021/11/17 04:07:49;;;;;;;1999.90;999.90;;;;;;;4.87;86.96;101213.11;1744944;80;21120;-71
2021/11/17 04:10:30;;;;;;;1999.90;999.90;;;;;;;4.85;86.92;101213.50;1731751;81;21120;-71
2021/11/17 04:13:22;;;;;;;1999.90;999.90;;;;;;;4.82;86.96;101211.75;1726966;81;21547;-71
2021/11/17 04:16:02;;;;;;;1999.90;999.90;;;;;;;4.81;86.96;101210.44;1743926;81;21026;-71
2021/11/17 04:19:02;;;;;;;1999.90;999.90;;;;;;;4.76;86.92;101204.38;1699655;83;21132;-71
2021/11/17 04:22:25;;;;;;;1999.90;999.90;;;;;;;4.76;86.97;101204.38;1703947;82;21088;-71
2021/11/17 04:25:28;;;;;;;1999.90;999.90;;;;;;;4.73;86.94;101205.61;1690752;84;21591;-71
2021/11/17 04:28:16;;;;;;;1999.90;999.90;;;;;;;4.73;87.03;101200.48;1709473;83;21375;-71
2021/11/17 04:31:23;;;;;;;1999.90;999.90;;;;;;;4.73;87.02;101205.61;1746122;82;21395;-71
2021/11/17 04:34:22;;;;;;;1999.90;999.90;;;;;;;4.71;87.01;101206.86;1710828;83;20857;-71
2021/11/17 04:37:19;;;;;;;1999.90;999.90;;;;;;;4.73;87.03;101209.45;1715325;83;20965;-71
2021/11/17 04:40:22;;;;;;;1999.90;999.90;;;;;;;4.72;87.03;101209.00;1693337;83;20973;-71
2021/11/17 04:43:19;;;;;;;1999.90;999.90;;;;;;;4.71;87.00;101205.58;1695059;83;20921;-71
2021/11/17 04:46:09;;;;;;;1999.90;999.90;;;;;;;4.73;87.08;101202.63;1705061;83;20914;-71
2021/11/17 04:48:58;;;;;;;1999.90;999.90;;;;;;;4.73;87.03;101202.63;1714419;83;20914;-71
2021/11/17 04:51:36;;;;;;;1999.90;999.90;;;;;;;4.74;87.03;101200.51;1688471;84;20917;-71
2021/11/17 04:54:36;;;;;;;1999.90;999.90;;;;;;;4.74;87.00;101203.48;1715925;82;20969;-71
2021/11/17 04:57:28;;;;;;;1999.90;999.90;;;;;;;4.74;87.03;101198.36;1691031;83;20914;-71
2021/11/17 05:00:47;;;;;;;1999.90;999.90;;;;;;;4.75;87.05;101200.95;1687393;83;20891;-71
2021/11/17 05:03:41;;;;;;;1999.90;999.90;;;;;;;4.76;87.04;101191.16;1747309;81;21863;-71
2021/11/17 05:06:24;;;;;;;1999.90;999.90;;;;;;;4.77;87.04;101185.61;1748149;81;20875;-71
2021/11/17 05:09:07;;;;;;;1999.90;999.90;;;;;;;4.78;87.05;101177.09;1761031;80;20910;-71
2021/11/17 05:12:09;;;;;;;1999.90;999.90;;;;;;;4.77;87.03;101179.20;1716358;82;21093;-71
2021/11/17 05:15:00;;;;;;;1999.90;999.90;;;;;;;4.74;87.03;101177.88;1698436;83;21089;-71
2021/11/17 05:17:37;;;;;;;1999.90;999.90;;;;;;;4.76;87.04;101187.73;1755953;80;21033;-71
2021/11/17 05:20:29;;;;;;;1999.90;999.90;;;;;;;4.76;87.02;101187.73;1730645;82;21022;-68
2021/11/17 05:23:23;;;;;;;1999.90;999.90;;;;;;;4.74;87.02;101187.70;1717886;82;21080;-68
2021/11/17 05:26:05;;;;;;;1999.90;999.90;;;;;;;4.73;87.03;101189.81;1717653;83;21028;-68
2021/11/17 05:29:00;;;;;;;1999.90;999.90;;;;;;;4.75;87.12;101184.30;1709831;83;21051;-68
2021/11/17 05:31:54;;;;;;;1999.90;999.90;;;;;;;4.74;87.04;101186.84;1711774;83;20957;-68
2021/11/17 05:34:50;;;;;;;1999.90;999.90;;;;;;;4.74;87.07;101191.96;1665711;85;21012;-68
2021/11/17 05:38:00;;;;;;;1999.90;999.90;;;;;;;4.73;87.08;101184.70;1686267;83;21078;-68
2021/11/17 05:40:54;;;;;;;1999.90;999.90;;;;;;;4.74;87.07;101180.44;1737301;80;21076;-68
2021/11/17 05:43:47;;;;;;;1999.90;999.90;;;;;;;4.73;87.04;101183.83;1718162;83;21107;-68
2021/11/17 05:46:43;;;;;;;1999.90;999.90;;;;;;;4.71;87.04;101176.54;1716077;82;20964;-68
2021/11/17 05:49:38;;;;;;;1999.90;999.90;;;;;;;4.73;87.08;101185.11;1716436;82;21065;-68
2021/11/17 05:52:15;;;;;;;1999.90;999.90;;;;;;;4.72;87.08;101179.55;1736794;82;20950;-68
2021/11/17 05:55:02;;;;;;;1999.90;999.90;;;;;;;4.71;87.04;101177.82;1708929;83;21568;-68
2021/11/17 05:57:45;;;;;;;1999.90;999.90;;;;;;;4.70;87.04;101182.50;1707647;83;22229;-68
2021/11/17 06:00:22;;;;;;;1999.90;999.90;;;;;;;4.69;87.06;101176.93;1721022;82;21056;-68
2021/11/17 06:03:27;;;;;;;1999.90;999.90;;;;;;;4.70;87.12;101178.66;1694151;82;21060;-68
2021/11/17 06:05:52;;;;;;;1999.90;999.90;;;;;;;4.71;87.09;101181.24;1737173;82;20930;-68
2021/11/17 06:08:18;;;;;;;1999.90;999.90;;;;;;;4.71;87.08;101179.96;1742183;81;20955;-68
2021/11/17 06:10:52;;;;;;;1999.90;999.90;;;;;;;4.70;87.08;101179.94;1726106;81;21006;-68
2021/11/17 06:13:20;;;;;;;1999.90;999.90;;;;;;;4.71;87.08;101181.24;1713526;82;21001;-68
2021/11/17 06:15:48;;;;;;;1999.90;999.90;;;;;;;4.71;87.08;101185.09;1743442;82;21604;-68
2021/11/17 06:18:18;;;;;;;1999.90;999.90;;;;;;;4.71;87.07;101179.96;1738589;82;20961;-68
2021/11/17 06:20:46;;;;;;;1999.90;999.90;;;;;;;4.72;87.05;101185.95;1723101;82;20941;-68
2021/11/17 06:23:23;;;;;;;1999.90;999.90;;;;;;;4.70;87.09;101183.78;1740495;81;20875;-68
2021/11/17 06:25:50;;;;;;;1999.90;999.90;;;;;;;4.72;87.07;101182.11;1771669;80;20902;-68
2021/11/17 06:28:27;;;;;;;1999.90;999.90;;;;;;;4.73;87.10;101184.70;1717971;82;20883;-68
2021/11/17 06:30:55;;;;;;;1999.90;999.90;;;;;;;4.74;87.07;101185.55;1718440;82;21434;-68
2021/11/17 06:33:24;;;;;;;99.07;49.27;;;;;;;4.75;87.10;101183.44;1742789;82;20898;-68
2021/11/17 06:35:50;;;;;;;103.90;50.73;;;;;;;4.76;87.07;101192.84;1733373;82;20938;-68
2021/11/17 06:38:19;;;;;;;102.57;50.83;;;;;;;4.76;87.07;101182.60;1748577;81;20839;-68
2021/11/17 06:40:46;;;;;;;99.60;49.15;;;;;;;4.76;87.08;101182.60;1748045;81;20898;-68
2021/11/17 06:43:13;;;;;;;96.55;49.48;;;;;;;4.77;87.06;101183.05;1731934;81;20957;-68
2021/11/17 06:45:46;;;;;;;100.72;52.53;;;;;;;4.77;87.01;101190.73;1718273;81;21437;-68
2021/11/17 06:48:14;;;;;;;101.35;49.75;;;;;;;4.75;87.05;101184.30;1718308;82;20937;-68
2021/11/17 06:50:44;;;;;;;1999.90;999.90;;;;;;;4.76;87.05;101192.84;1737292;82;20898;-68
2021/11/17 06:53:11;;;;;;;1999.90;999.90;;;;;;;4.78;87.08;101188.62;1730935;82;21013;-68
2021/11/17 06:55:38;;;;;;;97.12;64.22;;;;;;;4.79;87.11;101178.39;1724500;81;21495;-68
2021/11/17 06:58:05;;;;;;;119.55;53.45;;;;;;;4.82;87.09;101178.86;1748204;80;21077;-68
2021/11/17 07:00:34;;;;;;;114.97;54.55;;;;;;;4.82;87.09;101181.00;1748565;80;21116;-68
2021/11/17 07:03:01;;;;;;;115.97;54.85;;;;;;;4.82;87.04;101178.86;1754491;80;20930;-68
2021/11/17 07:05:28;;;;;;;110.42;53.92;;;;;;;4.82;87.07;101176.30;1746635;80;20914;-68
2021/11/17 07:07:55;;;;;;;103.67;53.85;;;;;;;4.84;87.05;101180.61;1746836;80;20934;-68
2021/11/17 07:10:25;;;;;;;114.82;57.43;;;;;;;4.83;87.04;101186.58;1693008;83;21024;-68
2021/11/17 07:12:54;;;;;;;106.27;55.05;;;;;;;4.83;87.04;101185.30;1701934;84;21109;-68
2021/11/17 07:15:23;;;;;;;103.55;53.13;;;;;;;4.84;87.09;101187.02;1703913;83;20907;-68
2021/11/17 07:17:49;;;;;;;100.60;51.40;;;;;;;4.86;87.10;101192.17;1698758;83;21019;-68
2021/11/17 07:20:16;;;;;;;95.07;49.42;;;;;;;4.88;87.10;101193.92;1671839;84;20957;-68
2021/11/17 07:22:44;;;;;;;93.92;49.00;;;;;;;4.91;87.09;101196.53;1703928;83;21367;-68
2021/11/17 07:25:15;;;;;;;91.97;49.95;;;;;;;4.93;87.10;101195.28;1694593;83;20958;-68
2021/11/17 07:27:42;;;;;;;97.57;50.33;;;;;;;4.93;87.04;101198.70;1707311;83;20945;-68
2021/11/17 07:30:12;;;;;;;84.22;47.05;;;;;;;4.94;87.02;101202.13;1705077;83;21405;-68
2021/11/17 07:32:39;;;;;;;84.75;47.00;;;;;;;4.95;87.04;101202.15;1687307;83;21457;-68
2021/11/17 07:35:07;;;;;;;85.32;47.08;;;;;;;4.97;87.03;101203.04;1697893;83;21406;-68
2021/11/17 07:37:33;;;;;;;85.67;48.20;;;;;;;4.97;87.03;101206.88;1731251;82;20939;-68
2021/11/17 07:39:59;;;;;;;89.30;50.70;;;;;;;5.01;87.04;101210.36;1729289;81;20954;-68
2021/11/17 07:42:25;;;;;;;95.05;51.02;;;;;;;5.01;87.02;101210.36;1732938;82;20902;-68
2021/11/17 07:44:52;;;;;;;87.88;49.40;;;;;;;5.02;87.01;101209.52;1740177;82;20977;-68
2021/11/17 07:47:19;;;;;;;90.57;51.00;;;;;;;5.05;87.04;101209.98;1709756;81;21065;-68
2021/11/17 07:49:45;;;;;;;95.87;52.17;;;;;;;5.06;87.00;101210.44;1740647;80;21049;-68
2021/11/17 07:52:11;;;;;;;93.03;52.47;;;;;;;5.04;86.93;101215.53;1742544;80;20902;-69
2021/11/17 07:54:38;;;;;;;92.08;52.80;;;;;;;5.03;86.90;101209.10;1699964;82;20934;-68
2021/11/17 07:57:08;;;;;;;92.17;51.70;;;;;;;5.02;86.97;101206.95;1766215;79;20981;-68
2021/11/17 07:59:36;;;;;;;88.60;49.67;;;;;;;5.03;86.95;101202.27;1715330;83;20905;-68
2021/11/17 08:02:10;;;;;;;93.90;50.25;;;;;;;5.04;86.98;101209.55;1696006;82;20890;-68
2021/11/17 08:04:38;;;;;;;99.85;54.20;;;;;;;5.06;86.99;101209.16;1738745;82;20902;-68
2021/11/17 08:07:13;;;;;;;95.95;53.28;;;;;;;5.08;87.00;101216.03;1777625;80;20855;-68
2021/11/17 08:09:43;;;;;;;131.03;75.87;;;;;;;5.10;87.02;101214.77;1721520;82;20918;-68
2021/11/17 08:12:09;;;;;;;113.35;67.22;;;;;;;5.11;87.00;101216.08;1775729;79;20879;-68
2021/11/17 08:14:36;;;;;;;117.25;73.62;;;;;;;5.11;86.95;101212.66;1759441;80;20898;-68
2021/11/17 08:17:03;;;;;;;121.55;70.12;;;;;;;5.11;86.98;101212.66;1749313;80;20926;-68
2021/11/17 08:19:29;;;;;;;105.70;66.37;;;;;;;5.12;86.98;101210.11;1743728;82;20937;-68
2021/11/17 08:22:08;;;;;;;107.00;64.62;;;;;;;5.11;86.94;101212.23;1747471;80;20878;-68
2021/11/17 08:24:37;;;;;;;100.33;58.28;;;;;;;5.09;86.88;101211.34;1729468;81;20859;-68
2021/11/17 08:27:13;;;;;;;117.42;68.60;;;;;;;5.07;86.91;101213.02;1739722;80;20866;-68
2021/11/17 08:29:39;;;;;;;96.05;54.03;;;;;;;5.06;86.91;101219.41;1748916;80;20917;-68
2021/11/17 08:32:07;;;;;;;98.17;54.58;;;;;;;5.04;86.93;101220.66;1768898;80;20862;-68
2021/11/17 08:34:33;;;;;;;102.80;54.67;;;;;;;5.04;86.93;101220.66;1740756;80;412085;-68
2021/11/17 08:36:59;;;;;;;103.05;54.58;;;;;;;5.03;86.95;101221.92;1732875;82;20897;-68
2021/11/17 08:39:26;;;;;;;98.07;60.75;;;;;;;5.04;86.95;101223.64;1724795;81;20933;-68
2021/11/17 08:41:52;;;;;;;102.17;56.92;;;;;;;5.04;87.00;101225.78;1696024;82;20921;-68
2021/11/17 08:44:20;;;;;;;104.63;56.50;;;;;;;5.05;87.01;101219.83;1717820;82;20957;-68
2021/11/17 08:46:46;;;;;;;104.12;55.73;;;;;;;5.08;87.01;101221.16;1714596;82;20906;-68
2021/11/17 08:49:12;;;;;;;106.13;57.53;;;;;;;5.08;87.00;101221.16;1713760;82;20831;-68
2021/11/17 08:51:38;;;;;;;98.72;56.02;;;;;;;5.07;86.92;101221.13;1707763;82;21076;-68
2021/11/17 08:54:05;;;;;;;94.55;53.85;;;;;;;5.06;86.96;101218.98;1719162;82;20909;-68
2021/11/17 08:56:36;;;;;;;102.85;58.60;;;;;;;5.08;86.99;101229.27;1716312;82;20975;-68
2021/11/17 08:59:04;;;;;;;101.87;56.88;;;;;;;5.08;86.99;101233.97;1705829;82;20953;-68
2021/11/17 09:01:33;;;;;;;105.78;59.48;;;;;;;5.10;87.01;101241.27;1704112;82;20934;-68
2021/11/17 09:04:01;;;;;;;120.90;66.20;;;;;;;5.11;86.99;101238.28;1704207;82;21449;-68
2021/11/17 09:06:27;;;;;;;115.77;67.72;;;;;;;5.13;87.00;101236.61;1717421;82;20946;-68
2021/11/17 09:08:54;;;;;;;111.68;63.98;;;;;;;5.14;87.03;101233.20;1704479;82;21513;-68
2021/11/17 09:11:21;;;;;;;112.70;60.20;;;;;;;5.16;87.01;101231.11;1719007;82;20973;-68
2021/11/17 09:13:48;;;;;;;117.40;66.37;;;;;;;5.18;87.05;101229.44;1718441;82;21189;-68
2021/11/17 09:16:15;;;;;;;119.33;63.98;;;;;;;5.20;87.01;101234.14;1717702;81;21428;-68
2021/11/17 09:18:42;;;;;;;121.33;66.22;;;;;;;5.21;87.00;101229.45;1712434;82;21427;-68
2021/11/17 09:21:13;;;;;;;132.50;76.22;;;;;;;5.25;87.03;101229.08;1728093;82;21374;-68
2021/11/17 09:23:40;;;;;;;119.02;68.00;;;;;;;5.27;87.01;101222.28;1697705;82;21512;-68
2021/11/17 09:26:06;;;;;;;133.05;75.78;;;;;;;5.29;87.05;101221.46;1717212;82;21367;-68
2021/11/17 09:28:34;;;;;;;124.35;74.32;;;;;;;5.35;87.03;101219.83;1723823;81;21559;-68
2021/11/17 09:31:02;;;;;;;114.05;63.92;;;;;;;5.37;87.04;101217.73;1699270;82;20910;-68
2021/11/17 09:33:29;;;;;;;113.80;60.63;;;;;;;5.39;87.00;101221.18;1680398;83;20959;-68
2021/11/17 09:35:56;;;;;;;108.63;58.60;;;;;;;5.42;86.99;101223.80;1708555;83;20905;-68
2021/11/17 09:38:23;;;;;;;117.20;65.60;;;;;;;5.45;87.01;101217.84;1660283;84;20873;-68
2021/11/17 09:40:55;;;;;;;123.25;70.87;;;;;;;5.48;87.02;101214.05;1687383;84;20951;-68
2021/11/17 09:43:35;;;;;;;122.02;66.10;;;;;;;5.52;87.05;101211.96;1674763;84;21526;-68
2021/11/17 09:46:01;;;;;;;118.47;63.35;;;;;;;5.56;87.03;101213.73;1690361;83;20895;-68
2021/11/17 09:48:37;;;;;;;111.10;61.65;;;;;;;5.59;87.01;101210.79;1702982;83;20957;-68
2021/11/17 09:51:10;;;;;;;122.72;74.30;;;;;;;5.63;87.02;101211.69;1682246;83;21505;-68
2021/11/17 09:54:12;;;;;;;115.92;65.47;;;;;;;5.67;87.04;101203.20;1693924;83;21796;-68
2021/11/17 09:56:48;;;;;;;112.83;60.30;;;;;;;5.70;86.96;101207.09;1671365;85;20896;-68
2021/11/17 09:59:35;;;;;;;108.25;63.42;;;;;;;5.72;86.98;101204.55;1687068;83;21450;-68
2021/11/17 10:02:19;;;;;;;106.80;58.63;;;;;;;5.74;86.93;101209.24;1702807;83;20933;-68
2021/11/17 10:04:54;;;;;;;106.37;59.00;;;;;;;5.74;86.92;101198.98;1679515;84;21469;-68
2021/11/17 10:13:21;;;;;;;100.22;56.90;;;;;;;5.75;86.94;101191.30;1696893;83;20917;-68
2021/11/17 10:15:51;;;;;;;106.87;60.88;;;;;;;5.78;86.95;101184.06;1710896;82;20913;-68
2021/11/17 10:18:42;;;;;;;102.70;55.30;;;;;;;5.78;86.97;101181.50;1721174;82;21398;-68
2021/11/17 10:21:13;;;;;;;109.00;58.30;;;;;;;5.82;86.99;101181.55;1697229;82;21394;-68
2021/11/17 10:24:01;;;;;;;111.00;58.70;;;;;;;5.83;86.96;101178.56;1714634;82;20937;-68
2021/11/17 10:26:28;;;;;;;116.45;58.20;;;;;;;5.85;86.97;101184.16;1662487;84;21430;-68
2021/11/17 10:29:02;;;;;;;108.17;59.95;;;;;;;5.86;86.88;101181.17;1714122;82;20915;-68
2021/11/17 10:32:13;;;;;;;109.92;57.62;;;;;;;5.87;86.94;101182.89;1715115;82;21411;-68
2021/11/17 10:35:00;;;;;;;112.20;59.77;;;;;;;5.89;86.96;101174.41;1669063;85;21475;-68
2021/11/17 10:37:43;;;;;;;109.03;60.33;;;;;;;5.92;86.91;101168.45;1688531;82;21403;-68
2021/11/17 10:40:18;;;;;;;96.87;52.17;;;;;;;5.93;86.95;101164.62;1679552;85;21468;-68
2021/11/17 10:42:48;;;;;;;100.62;56.75;;;;;;;5.98;86.99;101169.38;1677341;83;20960;-68
2021/11/17 10:45:32;;;;;;;100.47;54.67;;;;;;;6.02;86.96;101167.71;1681703;84;20952;-68
2021/11/17 10:47:58;;;;;;;98.07;51.95;;;;;;;6.04;86.90;101172.86;1710540;82;21378;-68
2021/11/17 10:50:32;;;;;;;110.93;57.63;;;;;;;6.06;86.87;101175.03;1711915;82;20879;-68
2021/11/17 10:53:07;;;;;;;101.22;55.10;;;;;;;6.07;86.88;101171.62;1664323;84;20951;-68
2021/11/17 10:55:49;;;;;;;94.80;49.85;;;;;;;6.07;86.87;101169.05;1691099;83;20973;-68
2021/11/17 10:58:26;;;;;;;98.50;52.90;;;;;;;6.08;86.83;101173.34;1698948;82;21394;-68
2021/11/17 11:01:13;;;;;;;97.70;55.60;;;;;;;6.09;86.89;101168.22;1695733;82;21370;-68
2021/11/17 11:03:37;;;;;;;98.12;51.68;;;;;;;6.10;86.87;101168.66;1734330;82;21351;-68
2021/11/17 11:06:23;;;;;;;93.45;52.25;;;;;;;6.12;86.90;101163.13;1667545;85;20938;-68
2021/11/17 11:09:07;;;;;;;103.40;52.78;;;;;;;6.13;86.87;101162.70;1667758;85;20922;-68
2021/11/17 11:11:41;;;;;;;97.08;51.85;;;;;;;6.14;86.86;101166.99;1700159;83;20934;-68
2021/11/17 11:14:21;;;;;;;99.65;52.80;;;;;;;6.14;86.82;101162.72;1708119;82;21485;-68
2021/11/17 11:17:15;;;;;;;101.25;51.58;;;;;;;6.14;86.80;101155.44;1687669;83;20969;-68
2021/11/17 11:19:41;;;;;;;96.55;52.80;;;;;;;6.12;86.74;101162.27;1709145;83;21601;-68
2021/11/17 11:22:15;;;;;;;88.92;48.87;;;;;;;6.10;86.79;101155.83;1710616;82;21029;-68
2021/11/17 11:24:51;;;;;;;92.37;49.23;;;;;;;6.12;86.85;101153.28;1706960;81;22010;-68
2021/11/17 11:27:36;;;;;;;90.67;48.52;;;;;;;6.11;86.78;101151.13;1709003;82;21077;-68
2021/11/17 11:30:10;;;;;;;92.50;47.93;;;;;;;6.11;86.77;101147.28;1711013;81;21107;-68
2021/11/17 11:32:45;;;;;;;92.43;49.73;;;;;;;6.09;86.79;101150.67;1695842;82;21065;-68
2021/11/17 11:35:17;;;;;;;87.53;47.08;;;;;;;6.09;86.76;101151.95;1703617;82;21131;-68
2021/11/17 11:37:53;;;;;;;94.35;48.80;;;;;;;6.06;86.77;101145.08;1707892;83;20920;-68
2021/11/17 11:40:25;;;;;;;91.28;48.08;;;;;;;6.05;86.76;101142.08;1726588;82;21020;-68
2021/11/17 11:43:18;;;;;;;87.57;46.18;;;;;;;6.04;86.76;101133.08;1722299;82;21533;-68
2021/11/17 11:45:48;;;;;;;97.62;51.65;;;;;;;6.02;86.75;101127.06;1712168;81;21599;-68
2021/11/17 11:48:44;;;;;;;93.75;47.88;;;;;;;6.03;86.78;101132.22;1716432;82;20938;-68
2021/11/17 11:51:41;;;;;;;91.72;47.58;;;;;;;6.04;86.79;101125.37;1706200;82;21036;-68
2021/11/17 11:54:27;;;;;;;93.42;48.60;;;;;;;6.03;86.76;101124.94;1709009;83;21100;-68
2021/11/17 11:57:04;;;;;;;97.55;48.92;;;;;;;6.04;86.77;101126.66;1708899;82;20878;-68
2021/11/17 11:59:38;;;;;;;91.70;48.68;;;;;;;6.01;86.71;101124.05;1700113;82;20933;-68
2021/11/17 12:02:19;;;;;;;96.25;47.58;;;;;;;6.01;86.73;101124.05;1717829;82;20926;-68
2021/11/17 12:04:51;;;;;;;92.65;48.05;;;;;;;5.98;86.71;101118.47;1696143;82;20925;-68
2021/11/17 12:07:28;;;;;;;94.25;47.73;;;;;;;5.96;86.71;101127.44;1688988;84;20954;-68
2021/11/17 12:10:09;;;;;;;92.72;49.27;;;;;;;5.98;86.73;101119.75;1689019;84;20882;-68
2021/11/17 12:12:41;;;;;;;93.27;48.17;;;;;;;5.97;86.72;101118.89;1700586;82;20961;-68
2021/11/17 12:15:35;;;;;;;98.00;48.28;;;;;;;5.96;86.74;101121.02;1714089;82;20906;-68
2021/11/17 12:18:18;;;;;;;79.10;44.53;;;;;;;5.98;86.74;101114.62;1700238;83;20910;-68
2021/11/17 12:21:06;;;;;;;91.12;48.23;;;;;;;5.98;86.72;101120.61;1689081;84;20919;-68
2021/11/17 12:23:42;;;;;;;99.00;51.55;;;;;;;6.01;86.73;101117.64;1653353;85;21054;-68
2021/11/17 12:26:21;;;;;;;93.25;52.67;;;;;;;6.01;86.69;101118.92;1648164;85;20894;-68
2021/11/17 12:29:14;;;;;;;99.65;51.83;;;;;;;6.01;86.72;101114.65;1674579;83;20945;-69
2021/11/17 12:31:57;;;;;;;88.67;48.28;;;;;;;6.03;86.69;101119.80;1656600;84;20925;-68
2021/11/17 12:34:28;;;;;;;87.25;48.08;;;;;;;6.02;86.65;101118.94;1677435;84;20949;-68
2021/11/17 12:37:12;;;;;;;103.67;53.10;;;;;;;6.04;86.69;101120.23;1682361;84;21470;-68
2021/11/17 12:39:53;;;;;;;90.77;48.98;;;;;;;6.04;86.65;101115.11;1701906;83;20911;-68
2021/11/17 12:42:34;;;;;;;84.90;44.73;;;;;;;6.06;86.67;101121.12;1666525;82;21059;-68
2021/11/17 12:45:14;;;;;;;84.72;44.18;;;;;;;6.06;86.65;101119.41;1665433;84;21108;-68
2021/11/17 12:47:46;;;;;;;85.50;43.00;;;;;;;6.08;86.64;101119.42;1636010;86;21582;-68
2021/11/17 12:50:32;;;;;;;88.65;43.05;;;;;;;6.07;86.62;101118.98;1706205;83;20961;-68
2021/11/17 12:53:14;;;;;;;83.05;41.58;;;;;;;6.07;86.63;101108.72;1661789;84;21104;-68
2021/11/17 12:55:51;;;;;;;83.58;44.55;;;;;;;6.09;86.62;101105.75;1651355;84;21012;-68
2021/11/17 12:58:23;;;;;;;78.50;42.62;;;;;;;6.10;86.62;101104.48;1680343;83;21444;-68
2021/11/17 13:00:57;;;;;;;77.03;41.05;;;;;;;6.11;86.60;101099.78;1685694;83;20992;-68
2021/11/17 13:03:49;;;;;;;83.70;41.00;;;;;;;6.11;86.61;101100.20;1699524;83;21536;-68
2021/11/17 13:06:42;;;;;;;69.47;36.40;;;;;;;6.11;86.57;101109.19;1660383;86;21807;-68
2021/11/17 13:09:32;;;;;;;73.52;38.83;;;;;;;6.11;86.59;101108.77;1707311;83;20969;-68
2021/11/17 13:12:09;;;;;;;77.15;38.38;;;;;;;6.12;86.57;101116.05;1666450;84;21142;-68
2021/11/17 13:14:51;;;;;;;69.35;36.58;;;;;;;6.09;86.51;101108.31;1635084;87;21361;-68
2021/11/17 13:17:34;;;;;;;69.25;37.38;;;;;;;6.07;86.50;101111.29;1660192;85;20958;-68
2021/11/17 13:20:24;;;;;;;61.10;33.80;;;;;;;6.04;86.49;101111.25;1677607;83;21366;-69
2021/11/17 13:23:14;;;;;;;56.95;29.82;;;;;;;6.00;86.47;101123.20;1660967;85;20898;-68
2021/11/17 13:26:00;;;;;;;42.40;23.10;;;;;;;5.98;86.46;101118.47;1646745;86;20900;-68
2021/11/17 13:28:47;;;;;;;38.98;21.25;;;;;;;5.95;86.42;101119.30;1648782;84;21052;-73
2021/11/17 13:31:35;;;;;;;41.20;21.42;;;;;;;5.91;86.41;101123.09;1658367;83;21531;-72
2021/11/17 13:34:31;;;;;;;32.67;17.80;;;;;;;5.87;86.39;101131.15;1683741;83;20932;-71
2021/11/17 13:37:27;;;;;;;26.00;15.08;;;;;;;5.84;86.36;101145.64;1640309;84;20905;-71
2021/11/17 13:39:58;;;;;;;20.92;12.20;;;;;;;5.79;86.27;101143.02;1664601;83;20948;-71
2021/11/17 13:42:26;;;;;;;20.92;12.68;;;;;;;5.74;86.28;101148.52;1698274;83;20909;-70
2021/11/17 13:44:56;;;;;;;20.23;11.68;;;;;;;5.70;86.34;101144.23;1686480;84;20965;-70
2021/11/17 13:47:25;;;;;;;24.77;12.85;;;;;;;5.68;86.32;101146.33;1688998;84;20905;-70
2021/11/17 13:49:55;;;;;;;21.15;11.22;;;;;;;5.68;86.37;101148.48;1675430;84;20905;-70
2021/11/17 13:52:26;;;;;;;20.12;11.08;;;;;;;5.64;86.32;101151.42;1685426;84;20913;-70
2021/11/17 13:54:53;;;;;;;20.12;11.12;;;;;;;5.59;86.29;101150.50;1710239;83;20957;-70
2021/11/17 13:57:20;;;;;;;19.32;11.85;;;;;;;5.57;86.34;101148.77;1700763;82;28098;-69
2021/11/17 13:59:46;;;;;;;20.57;11.18;;;;;;;5.53;86.28;101143.15;1680188;84;20886;-69
2021/11/17 14:02:14;;;;;;;22.17;12.30;;;;;;;5.51;86.36;101146.12;1681605;84;22225;-70
2021/11/17 14:04:40;;;;;;;20.45;12.43;;;;;;;5.50;86.40;101142.69;1656096;84;21667;-70
2021/11/17 14:07:16;;;;;;;20.23;12.30;;;;;;;5.50;86.38;101145.25;1709477;83;20924;-70
2021/11/17 14:09:43;;;;;;;18.62;11.70;;;;;;;5.50;86.37;101148.24;1711965;82;20965;-73
2021/11/17 14:12:09;;;;;;;18.70;11.12;;;;;;;5.49;86.41;101152.51;1721071;82;20949;-72
2021/11/17 14:14:37;;;;;;;;;;;;;;;5.48;86.40;101147.36;1701981;83;20926;-71
2021/11/17 14:17:05;;;;;;;18.87;9.75;;;;;;;5.47;86.40;101149.06;1731993;82;20090;-71
2021/11/17 14:19:33;;;;;;;17.25;9.73;;;;;;;5.45;86.35;101145.61;1733523;82;20910;-72
2021/11/17 14:22:09;;;;;;;12.70;8.63;;;;;;;5.44;86.36;101141.33;1697011;83;20961;-72
2021/11/17 14:24:36;;;;;;;15.75;9.48;;;;;;;5.45;86.37;101137.06;1728364;82;20910;-71
2021/11/17 14:27:06;;;;;;;15.35;9.75;;;;;;;5.44;86.37;101135.33;1715280;81;21509;-73
2021/11/17 14:29:42;;;;;;;13.95;8.08;;;;;;;5.43;86.37;101140.02;1699503;82;20945;-68